YVC weather

La Ronge Airport
La Ronge, Saskatchewan, Canada

Public forecast

Using degrees Celsius for public forecast. Weather courtesy of forecast.io.

Current aviation weather report (METAR) for La Ronge Airport

Retrieved 2020/05/30 10:00 UTC (32 minutes ago):

CYVC 301000Z 00000KT 15SM SKC 01/M02 A3026 RMK SLP262

Aviation forecast (TAF) for La Ronge Airport

Retrieved 2020/05/30 07:39 UTC (3 hours ago):

TAF CYVC 300638Z 3007/3019 VRB03KT P6SM SKC FM301500 21005KT P6SM SCT080 BECMG 3017/3019 27008KT RMK NXT FCST BY 301300Z